createdAt,value
2022-11-22T00:00:49.910Z,966.213
2022-11-22T00:02:50.537Z,966.207
2022-11-22T00:04:50.538Z,966.171
2022-11-22T00:06:50.579Z,966.157
2022-11-22T00:08:49.971Z,966.139
2022-11-22T00:10:50.792Z,966.084
2022-11-22T00:12:50.382Z,966.074
2022-11-22T00:14:57.263Z,966.053
2022-11-22T00:16:50.065Z,966.009
2022-11-22T00:18:50.681Z,965.961
2022-11-22T00:20:50.296Z,965.931
2022-11-22T00:22:49.877Z,965.929
2022-11-22T00:24:50.516Z,965.941
2022-11-22T00:26:50.520Z,965.886
2022-11-22T00:28:49.923Z,965.903
2022-11-22T00:30:50.551Z,965.877
2022-11-22T00:32:50.356Z,965.836
2022-11-22T00:34:50.361Z,965.822
2022-11-22T00:36:50.193Z,965.823
2022-11-22T00:38:50.816Z,965.892
2022-11-22T00:40:50.378Z,965.920
2022-11-22T00:42:50.019Z,965.805
2022-11-22T00:44:50.633Z,965.756
2022-11-22T00:46:50.641Z,965.770
2022-11-22T00:48:50.297Z,965.805
2022-11-22T00:50:49.885Z,965.710
2022-11-22T00:52:50.703Z,965.710
2022-11-22T00:54:55.453Z,965.673
2022-11-22T00:56:50.320Z,965.652
2022-11-22T00:58:50.137Z,965.689
2022-11-22T01:00:57.252Z,965.578
2022-11-22T01:02:50.042Z,965.621
2022-11-22T01:04:50.171Z,965.621
2022-11-22T01:06:50.002Z,965.603
2022-11-22T01:08:49.789Z,965.626
2022-11-22T01:10:50.383Z,965.539
2022-11-22T01:12:50.032Z,965.643
2022-11-22T01:14:50.657Z,965.602
2022-11-22T01:16:50.447Z,965.563
2022-11-22T01:18:50.080Z,965.571
2022-11-22T01:20:50.693Z,965.539
2022-11-22T01:22:50.082Z,965.563
2022-11-22T01:24:50.325Z,965.547
2022-11-22T01:26:50.383Z,965.509
2022-11-22T01:28:49.971Z,965.524
2022-11-22T01:30:50.784Z,965.513
2022-11-22T01:32:50.406Z,965.558
2022-11-22T01:34:50.596Z,965.546
2022-11-22T01:36:50.617Z,965.582
2022-11-22T01:38:50.242Z,965.555
2022-11-22T01:40:50.223Z,965.499
2022-11-22T01:42:50.759Z,965.488
2022-11-22T01:44:50.675Z,965.441
2022-11-22T01:46:50.688Z,965.404
2022-11-22T01:48:50.507Z,965.399
2022-11-22T01:50:50.121Z,965.422
2022-11-22T01:52:49.924Z,965.340
2022-11-22T01:54:50.936Z,965.340
2022-11-22T01:56:49.968Z,965.347
2022-11-22T01:58:50.531Z,965.370
2022-11-22T02:00:50.509Z,965.366
2022-11-22T02:02:50.181Z,965.355
2022-11-22T02:04:50.218Z,965.367
2022-11-22T02:06:50.168Z,965.353
2022-11-22T02:08:49.838Z,965.314
2022-11-22T02:10:50.668Z,965.309
2022-11-22T02:12:50.257Z,965.293
2022-11-22T02:14:49.890Z,965.294
2022-11-22T02:16:49.867Z,965.265
2022-11-22T02:18:50.521Z,965.269
2022-11-22T02:20:50.152Z,965.233
2022-11-22T02:22:50.730Z,965.189
2022-11-22T02:24:50.376Z,965.169
2022-11-22T02:26:50.155Z,965.233
2022-11-22T02:28:50.604Z,965.205
2022-11-22T02:30:50.410Z,965.145
2022-11-22T02:32:49.936Z,965.135
2022-11-22T02:34:49.952Z,965.126
2022-11-22T02:36:49.833Z,965.278
2022-11-22T02:38:50.468Z,965.299
2022-11-22T02:40:50.319Z,965.385
2022-11-22T02:42:49.916Z,965.387
2022-11-22T02:44:50.442Z,965.424
2022-11-22T02:46:50.348Z,965.522
2022-11-22T02:48:49.925Z,965.564
2022-11-22T02:50:50.757Z,965.559
2022-11-22T02:52:50.177Z,965.548
2022-11-22T02:54:50.763Z,965.581
2022-11-22T02:56:50.802Z,965.542
2022-11-22T02:58:50.399Z,965.565
2022-11-22T03:00:50.147Z,965.610
2022-11-22T03:02:49.805Z,965.510
2022-11-22T03:04:49.847Z,965.438
2022-11-22T03:06:49.868Z,965.310
2022-11-22T03:08:56.959Z,965.358
2022-11-22T03:10:50.713Z,965.364
2022-11-22T03:12:50.308Z,965.394
2022-11-22T03:14:49.927Z,965.371
2022-11-22T03:16:49.925Z,965.346
2022-11-22T03:18:50.548Z,965.359
2022-11-22T03:20:50.367Z,965.435
2022-11-22T03:22:50.659Z,965.490
2022-11-22T03:24:50.176Z,965.489
2022-11-22T03:26:50.065Z,965.497
2022-11-22T03:28:50.625Z,965.556
2022-11-22T03:30:50.232Z,965.555
2022-11-22T03:32:49.840Z,965.519
2022-11-22T03:34:50.070Z,965.619
2022-11-22T03:36:50.119Z,965.606
2022-11-22T03:38:50.768Z,965.631
2022-11-22T03:40:50.381Z,965.636
2022-11-22T03:42:49.968Z,965.670
2022-11-22T03:44:50.529Z,965.663
2022-11-22T03:46:50.577Z,965.651
2022-11-22T03:48:50.149Z,965.662
2022-11-22T03:50:50.568Z,965.651
2022-11-22T03:52:50.404Z,965.593
2022-11-22T03:54:49.818Z,965.584
2022-11-22T03:56:50.614Z,965.553
2022-11-22T03:58:50.255Z,965.559
2022-11-22T04:00:49.867Z,965.586
2022-11-22T04:02:50.662Z,965.574
2022-11-22T04:04:50.721Z,965.539
2022-11-22T04:06:50.725Z,965.580
2022-11-22T04:08:50.475Z,965.640
2022-11-22T04:10:50.103Z,965.650
2022-11-22T04:12:50.748Z,965.692
2022-11-22T04:14:50.196Z,965.659
2022-11-22T04:16:49.966Z,965.682
2022-11-22T04:18:50.602Z,965.731
2022-11-22T04:20:50.010Z,965.737
2022-11-22T04:22:50.503Z,965.791
2022-11-22T04:24:50.332Z,965.810
2022-11-22T04:26:50.037Z,965.828
2022-11-22T04:29:10.679Z,965.845
2022-11-22T04:30:49.906Z,965.864
2022-11-22T04:32:50.476Z,965.873
2022-11-22T04:34:50.511Z,965.892
2022-11-22T04:36:50.321Z,965.871
2022-11-22T04:38:49.934Z,965.921
2022-11-22T04:40:50.568Z,965.927
2022-11-22T04:42:50.236Z,965.965
2022-11-22T04:44:50.773Z,965.965
2022-11-22T04:46:50.788Z,965.967
2022-11-22T04:48:50.225Z,965.957
2022-11-22T04:50:50.013Z,965.957
2022-11-22T04:52:50.655Z,965.940
2022-11-22T04:54:50.280Z,965.908
2022-11-22T04:56:50.293Z,965.959
2022-11-22T04:58:49.880Z,965.944
2022-11-22T05:00:50.960Z,965.872
2022-11-22T05:02:50.516Z,965.843
2022-11-22T05:04:51.237Z,965.843
2022-11-22T05:06:50.134Z,965.922
2022-11-22T05:08:50.734Z,965.895
2022-11-22T05:10:50.559Z,965.832
2022-11-22T05:12:50.189Z,965.869
2022-11-22T05:14:49.989Z,965.857
2022-11-22T05:16:50.021Z,965.869
2022-11-22T05:18:50.505Z,965.914
2022-11-22T05:20:50.282Z,965.997
2022-11-22T05:22:49.879Z,966.016
2022-11-22T05:24:50.470Z,965.992
2022-11-22T05:26:50.297Z,965.963
2022-11-22T05:28:50.711Z,965.894
2022-11-22T05:30:50.344Z,965.920
2022-11-22T05:32:49.953Z,965.949
2022-11-22T05:34:49.969Z,965.933
2022-11-22T05:36:49.978Z,965.954
2022-11-22T05:38:50.379Z,965.909
2022-11-22T05:40:50.022Z,965.904
2022-11-22T05:42:50.636Z,965.941
2022-11-22T05:44:50.210Z,965.968
2022-11-22T05:46:50.241Z,966.014
2022-11-22T05:48:50.663Z,965.935
2022-11-22T05:50:50.262Z,965.967
2022-11-22T05:52:49.895Z,965.981
2022-11-22T05:54:50.610Z,966.087
2022-11-22T05:56:50.496Z,966.073
2022-11-22T05:58:50.353Z,966.080
2022-11-22T06:00:49.943Z,966.037
2022-11-22T06:02:50.533Z,966.059
2022-11-22T06:04:50.608Z,966.122
2022-11-22T06:06:50.633Z,966.244
2022-11-22T06:08:50.407Z,966.228
2022-11-22T06:10:50.036Z,966.250
2022-11-22T06:12:50.642Z,966.225
2022-11-22T06:14:50.254Z,966.224
2022-11-22T06:16:50.076Z,966.308
2022-11-22T06:18:50.659Z,966.399
2022-11-22T06:20:50.331Z,966.424
2022-11-22T06:22:50.043Z,966.410
2022-11-22T06:24:50.743Z,966.396
2022-11-22T06:26:50.737Z,966.364
2022-11-22T06:28:50.403Z,966.397
2022-11-22T06:30:49.963Z,966.355
2022-11-22T06:32:50.550Z,966.372
2022-11-22T06:34:50.815Z,966.393
2022-11-22T06:36:49.808Z,966.427
2022-11-22T06:38:50.612Z,966.452
2022-11-22T06:40:50.214Z,966.482
2022-11-22T06:42:50.043Z,966.509
2022-11-22T06:44:50.679Z,966.558
2022-11-22T06:46:50.484Z,966.570
2022-11-22T06:48:50.318Z,966.611
2022-11-22T06:50:49.885Z,966.599
2022-11-22T06:52:50.338Z,966.594
2022-11-22T06:54:50.189Z,966.548
2022-11-22T06:56:50.156Z,966.534
2022-11-22T06:58:50.777Z,966.495
2022-11-22T07:00:50.453Z,966.527
2022-11-22T07:02:50.209Z,966.587
2022-11-22T07:05:24.910Z,966.587
2022-11-22T07:06:50.414Z,966.648
2022-11-22T07:08:50.037Z,966.615
2022-11-22T07:10:50.674Z,966.665
2022-11-22T07:12:50.259Z,966.662
2022-11-22T07:14:50.087Z,966.708
2022-11-22T07:16:50.104Z,966.708
2022-11-22T07:18:49.903Z,966.767
2022-11-22T07:20:50.376Z,966.858
2022-11-22T07:22:49.923Z,966.866
2022-11-22T07:24:50.559Z,966.988
2022-11-22T07:26:50.384Z,967.021
2022-11-22T07:28:49.986Z,967.060
2022-11-22T07:30:49.815Z,967.040
2022-11-22T07:32:50.211Z,967.067
2022-11-22T07:34:50.040Z,967.090
2022-11-22T07:37:02.481Z,967.083
2022-11-22T07:38:50.387Z,967.111
2022-11-22T07:40:50.092Z,967.206
2022-11-22T07:42:58.966Z,967.279
2022-11-22T07:44:50.732Z,967.297
2022-11-22T07:46:50.766Z,967.304
2022-11-22T07:48:50.328Z,967.327
2022-11-22T07:50:50.167Z,967.295
2022-11-22T07:52:50.761Z,967.355
2022-11-22T07:54:50.547Z,967.449
2022-11-22T07:56:50.604Z,967.489
2022-11-22T07:58:50.216Z,967.489
2022-11-22T08:00:49.864Z,967.586
2022-11-22T08:02:50.251Z,967.570
2022-11-22T08:04:50.460Z,967.628
2022-11-22T08:06:50.475Z,967.606
2022-11-22T08:08:50.089Z,967.639
2022-11-22T08:10:50.762Z,967.694
2022-11-22T08:12:50.184Z,967.680
2022-11-22T08:14:49.938Z,967.726
2022-11-22T08:16:50.754Z,967.745
2022-11-22T08:18:50.370Z,967.820
2022-11-22T08:20:50.004Z,967.815
2022-11-22T08:22:50.553Z,967.828
2022-11-22T08:24:50.435Z,967.872
2022-11-22T08:26:50.464Z,967.920
2022-11-22T08:28:50.019Z,967.910
2022-11-22T08:30:50.141Z,967.912
2022-11-22T08:32:50.622Z,967.968
2022-11-22T08:34:50.677Z,967.968
2022-11-22T08:36:50.468Z,968.009
2022-11-22T08:38:50.289Z,967.985
2022-11-22T08:40:49.919Z,967.985
2022-11-22T08:42:50.731Z,968.002
2022-11-22T08:44:50.318Z,967.969
2022-11-22T08:46:50.364Z,967.932
2022-11-22T08:48:49.965Z,967.940
2022-11-22T08:50:50.379Z,967.895
2022-11-22T08:52:50.000Z,967.944
2022-11-22T08:54:50.597Z,967.918
2022-11-22T08:56:50.433Z,967.916
2022-11-22T08:58:50.460Z,967.866
2022-11-22T09:00:50.253Z,967.921
2022-11-22T09:02:50.265Z,967.983
2022-11-22T09:04:50.312Z,967.986
2022-11-22T09:10:50.413Z,968.010
2022-11-22T09:12:49.927Z,967.965
2022-11-22T09:14:50.730Z,967.980
2022-11-22T09:16:49.977Z,967.942
2022-11-22T09:18:50.596Z,968.006
2022-11-22T09:20:50.256Z,967.996
2022-11-22T09:22:49.846Z,968.014
2022-11-22T09:24:50.612Z,967.995
2022-11-22T09:26:50.423Z,968.030
2022-11-22T09:28:49.874Z,968.043
2022-11-22T09:30:50.678Z,968.103
2022-11-22T09:32:50.311Z,968.103
2022-11-22T09:34:50.327Z,968.171
2022-11-22T09:36:50.319Z,968.150
2022-11-22T09:38:50.125Z,968.178
2022-11-22T09:40:50.728Z,968.173
2022-11-22T09:42:50.384Z,968.109
2022-11-22T09:44:50.173Z,968.137
2022-11-22T09:46:50.416Z,968.120
2022-11-22T09:48:50.193Z,968.130
2022-11-22T09:50:49.842Z,968.177
2022-11-22T09:52:50.644Z,968.141
2022-11-22T09:54:50.242Z,968.142
2022-11-22T09:56:50.259Z,968.170
2022-11-22T09:58:49.843Z,968.200
2022-11-22T10:00:53.053Z,968.245
2022-11-22T10:03:01.186Z,968.211
2022-11-22T10:04:49.956Z,968.211
2022-11-22T10:06:49.972Z,968.245
2022-11-22T10:08:50.537Z,968.254
2022-11-22T10:10:50.376Z,968.295
2022-11-22T10:12:49.998Z,968.241
2022-11-22T10:14:49.880Z,968.260
2022-11-22T10:16:49.788Z,968.255
2022-11-22T10:18:50.249Z,968.289
2022-11-22T10:20:50.030Z,968.294
2022-11-22T10:22:50.657Z,968.289
2022-11-22T10:24:50.488Z,968.290
2022-11-22T10:26:50.529Z,968.307
2022-11-22T10:28:50.312Z,968.354
2022-11-22T10:30:49.899Z,968.396
2022-11-22T10:32:50.319Z,968.384
2022-11-22T10:34:50.353Z,968.392
2022-11-22T10:36:50.189Z,968.394
2022-11-22T10:38:49.973Z,968.414
2022-11-22T10:40:50.596Z,968.482
2022-11-22T10:42:50.206Z,968.464
2022-11-22T10:44:50.018Z,968.471
2022-11-22T10:46:57.421Z,968.404
2022-11-22T10:48:50.255Z,968.408
2022-11-22T10:50:49.836Z,968.468
2022-11-22T10:52:50.319Z,968.474
2022-11-22T10:54:49.886Z,968.534
2022-11-22T10:56:50.679Z,968.606
2022-11-22T10:58:50.762Z,968.558
2022-11-22T11:00:50.509Z,968.549
2022-11-22T11:02:50.549Z,968.571
2022-11-22T11:04:50.564Z,968.536
2022-11-22T11:07:12.652Z,968.515
2022-11-22T11:09:55.376Z,968.581
2022-11-22T11:10:50.353Z,968.641
2022-11-22T11:12:50.247Z,968.625
2022-11-22T11:14:49.812Z,968.629
2022-11-22T11:16:50.647Z,968.658
2022-11-22T11:18:50.291Z,968.682
2022-11-22T11:20:49.897Z,968.634
2022-11-22T11:23:15.425Z,968.631
2022-11-22T11:24:50.820Z,968.616
2022-11-22T11:26:50.539Z,968.600
2022-11-22T11:28:50.191Z,968.615
2022-11-22T11:30:50.733Z,968.570
2022-11-22T11:32:50.354Z,968.533
2022-11-22T11:34:50.441Z,968.513
2022-11-22T11:36:50.602Z,968.522
2022-11-22T11:38:50.190Z,968.459
2022-11-22T11:40:49.822Z,968.467
2022-11-22T11:42:50.545Z,968.507
2022-11-22T11:44:50.038Z,968.413
2022-11-22T11:46:50.054Z,968.402
2022-11-22T11:48:50.492Z,968.406
2022-11-22T11:50:50.061Z,968.425
2022-11-22T11:52:50.698Z,968.421
2022-11-22T11:54:50.115Z,968.422
2022-11-22T11:56:50.127Z,968.410
2022-11-22T11:58:49.968Z,968.439
2022-11-22T12:00:50.582Z,968.360
2022-11-22T12:02:50.508Z,968.358
2022-11-22T12:04:49.980Z,968.287
2022-11-22T12:06:50.006Z,968.306
2022-11-22T12:08:50.608Z,968.306
2022-11-22T12:10:50.235Z,968.288
2022-11-22T12:12:50.649Z,968.234
2022-11-22T12:15:11.784Z,968.285
2022-11-22T12:16:50.072Z,968.270
2022-11-22T12:18:50.673Z,968.162
2022-11-22T12:20:50.544Z,968.179
2022-11-22T12:22:51.194Z,968.146
2022-11-22T12:25:31.347Z,968.125
2022-11-22T12:26:50.023Z,968.164
2022-11-22T12:28:50.380Z,968.130
2022-11-22T12:30:50.202Z,968.066
2022-11-22T12:32:50.590Z,968.093
2022-11-22T12:34:50.643Z,968.043
2022-11-22T12:36:50.614Z,967.986
2022-11-22T12:38:50.047Z,967.976
2022-11-22T12:40:49.839Z,968.008
2022-11-22T12:42:50.496Z,967.994
2022-11-22T12:44:50.086Z,967.988
2022-11-22T12:46:50.084Z,968.023
2022-11-22T12:48:50.713Z,967.938
2022-11-22T12:50:50.317Z,967.924
2022-11-22T12:52:49.941Z,967.933
2022-11-22T12:54:50.355Z,967.921
2022-11-22T12:56:50.418Z,967.851
2022-11-22T12:58:49.995Z,967.851
2022-11-22T13:00:50.557Z,967.867
2022-11-22T13:02:59.395Z,967.890
2022-11-22T13:04:50.756Z,967.875
2022-11-22T13:06:50.312Z,967.805
2022-11-22T13:09:03.627Z,967.760
2022-11-22T13:10:50.066Z,967.739
2022-11-22T13:12:50.471Z,967.814
2022-11-22T13:14:50.226Z,967.822
2022-11-22T13:16:50.809Z,967.828
2022-11-22T13:18:50.319Z,967.828
2022-11-22T13:20:49.967Z,967.883
2022-11-22T13:22:50.617Z,967.813
2022-11-22T13:24:50.180Z,967.839
2022-11-22T13:26:49.984Z,967.799
2022-11-22T13:28:50.809Z,967.778
2022-11-22T13:30:50.405Z,967.867
2022-11-22T13:32:50.020Z,967.857
2022-11-22T13:34:49.843Z,967.842
2022-11-22T13:36:50.636Z,967.834
2022-11-22T13:38:50.305Z,967.834
2022-11-22T13:40:50.717Z,967.725
2022-11-22T13:42:50.314Z,967.766
2022-11-22T13:44:50.005Z,967.737
2022-11-22T13:46:50.774Z,967.820
2022-11-22T13:48:50.580Z,967.854
2022-11-22T13:50:50.213Z,967.828
2022-11-22T13:52:50.621Z,967.875
2022-11-22T13:54:50.768Z,967.875
2022-11-22T13:56:50.413Z,967.894
2022-11-22T13:58:52.599Z,967.922
2022-11-22T14:00:50.616Z,967.945
2022-11-22T14:02:50.582Z,967.962
2022-11-22T14:04:50.616Z,967.982
2022-11-22T14:06:50.635Z,967.947
2022-11-22T14:08:50.221Z,967.935
2022-11-22T14:10:49.867Z,967.956
2022-11-22T14:12:50.488Z,967.963
2022-11-22T14:14:50.270Z,967.956
2022-11-22T14:16:50.067Z,968.014
2022-11-22T14:18:50.481Z,968.014
2022-11-22T14:20:50.323Z,968.032
2022-11-22T14:22:49.889Z,968.094
2022-11-22T14:24:50.506Z,968.091
2022-11-22T14:26:50.523Z,968.116
2022-11-22T14:28:50.445Z,968.183
2022-11-22T14:30:50.266Z,968.192
2022-11-22T14:32:50.759Z,968.252
2022-11-22T14:34:49.998Z,968.245
2022-11-22T14:36:50.061Z,968.260
2022-11-22T14:38:49.869Z,968.280
2022-11-22T14:40:50.471Z,968.294
2022-11-22T14:42:50.115Z,968.278
2022-11-22T14:44:50.671Z,968.256
2022-11-22T14:46:54.646Z,968.229
2022-11-22T14:48:50.500Z,968.246
2022-11-22T14:50:50.157Z,968.209
2022-11-22T14:52:49.957Z,968.199
2022-11-22T14:54:50.558Z,968.150
2022-11-22T14:56:50.580Z,968.176
2022-11-22T14:58:50.380Z,968.188
2022-11-22T15:00:49.975Z,968.188
2022-11-22T15:02:50.606Z,968.124
2022-11-22T15:09:07.184Z,968.144
2022-11-22T15:09:09.442Z,968.146
2022-11-22T15:10:50.768Z,968.176
2022-11-22T15:12:51.116Z,968.142
2022-11-22T15:14:49.897Z,968.190
2022-11-22T15:57:13.407Z,968.740
2022-11-22T15:58:49.929Z,968.821
2022-11-22T16:01:20.071Z,968.850
2022-11-22T16:02:50.616Z,968.930
2022-11-22T16:06:04.870Z,968.945
2022-11-22T16:06:49.873Z,968.927
2022-11-22T16:08:50.670Z,968.927
2022-11-22T16:10:50.649Z,968.939
2022-11-22T16:12:50.209Z,968.957
2022-11-22T16:14:50.546Z,968.903
2022-11-22T16:16:50.361Z,968.942
2022-11-22T16:18:49.951Z,968.989
2022-11-22T16:20:49.956Z,968.946
2022-11-22T16:22:50.390Z,968.961
2022-11-22T16:24:49.977Z,969.032
2022-11-22T16:26:50.074Z,969.023
2022-11-22T16:28:50.436Z,969.066
2022-11-22T16:30:50.046Z,969.052
2022-11-22T16:32:50.647Z,969.058
2022-11-22T16:35:28.392Z,969.016
2022-11-22T16:36:50.108Z,969.063
2022-11-22T16:38:50.698Z,969.089
2022-11-22T16:40:50.334Z,969.032
2022-11-22T16:42:49.955Z,969.006
2022-11-22T16:44:50.539Z,969.036
2022-11-22T16:46:50.564Z,969.060
2022-11-22T16:48:50.192Z,969.039
2022-11-22T16:50:50.812Z,969.055
2022-11-22T16:52:50.594Z,969.037
2022-11-22T16:54:50.024Z,969.058
2022-11-22T16:56:50.031Z,969.045
2022-11-22T16:58:50.644Z,969.053
2022-11-22T17:00:50.497Z,969.071
2022-11-22T17:02:50.285Z,969.103
2022-11-22T17:04:50.277Z,969.088
2022-11-22T17:06:50.078Z,969.117
2022-11-22T17:08:50.739Z,969.068
2022-11-22T17:10:50.282Z,969.002
2022-11-22T17:12:49.933Z,969.016
2022-11-22T17:14:50.538Z,969.061
2022-11-22T17:16:50.388Z,969.046
2022-11-22T17:18:49.994Z,969.049
2022-11-22T17:20:50.373Z,969.105
2022-11-22T17:22:49.828Z,969.130
2022-11-22T17:24:50.595Z,969.137
2022-11-22T17:26:50.454Z,969.211
2022-11-22T17:28:49.847Z,969.198
2022-11-22T17:30:50.690Z,969.262
2022-11-22T17:32:50.166Z,969.256
2022-11-22T17:34:50.315Z,969.390
2022-11-22T17:36:50.090Z,969.390
2022-11-22T17:38:50.623Z,969.403
2022-11-22T17:40:50.382Z,969.387
2022-11-22T17:42:49.969Z,969.393
2022-11-22T17:44:50.348Z,969.407
2022-11-22T17:46:50.181Z,969.377
2022-11-22T17:48:50.616Z,969.426
2022-11-22T17:50:50.215Z,969.412
2022-11-22T17:52:49.827Z,969.415
2022-11-22T17:54:50.404Z,969.431
2022-11-22T17:56:50.288Z,969.467
2022-11-22T17:58:49.876Z,969.514
2022-11-22T18:00:50.717Z,969.578
2022-11-22T18:02:50.734Z,969.634
2022-11-22T18:04:49.996Z,969.628
2022-11-22T18:06:50.601Z,969.641
2022-11-22T18:08:50.269Z,969.659
2022-11-22T18:10:49.846Z,969.728
2022-11-22T18:13:21.078Z,969.750
2022-11-22T18:14:50.183Z,969.774
2022-11-22T18:16:50.086Z,969.809
2022-11-22T18:18:58.909Z,969.807
2022-11-22T18:20:49.938Z,969.791
2022-11-22T18:22:50.548Z,969.810
2022-11-22T18:24:50.170Z,969.810
2022-11-22T18:26:50.173Z,969.759
2022-11-22T18:29:40.954Z,969.781
2022-11-22T18:30:50.556Z,969.789
2022-11-22T18:32:49.984Z,969.798
2022-11-22T18:34:49.842Z,969.834
2022-11-22T18:37:06.648Z,969.828
2022-11-22T18:38:56.064Z,969.808
2022-11-22T18:40:50.674Z,969.855
2022-11-22T18:42:50.111Z,969.867
2022-11-22T18:44:50.744Z,969.900
2022-11-22T18:46:50.706Z,969.920
2022-11-22T18:48:50.171Z,969.939
2022-11-22T18:50:50.761Z,969.917
2022-11-22T18:52:50.572Z,969.917
2022-11-22T18:54:49.977Z,969.958
2022-11-22T18:56:50.133Z,969.975
2022-11-22T18:58:49.795Z,969.931
2022-11-22T19:00:50.304Z,969.974
2022-11-22T19:02:50.032Z,969.996
2022-11-22T19:04:50.077Z,970.033
2022-11-22T19:06:49.881Z,969.988
2022-11-22T19:08:50.668Z,970.013
2022-11-22T19:10:50.097Z,970.005
2022-11-22T19:12:50.739Z,970.004
2022-11-22T19:14:50.526Z,970.014
2022-11-22T19:16:50.410Z,970.018
2022-11-22T19:18:50.016Z,969.980
2022-11-22T19:20:55.971Z,969.915
2022-11-22T19:22:50.564Z,969.908
2022-11-22T19:24:50.006Z,969.945
2022-11-22T19:26:50.033Z,969.945
2022-11-22T19:28:50.721Z,970.020
2022-11-22T19:30:50.454Z,969.921
2022-11-22T19:32:49.949Z,969.882
2022-11-22T19:34:50.757Z,969.914
2022-11-22T19:36:49.893Z,969.886
2022-11-22T19:38:50.539Z,969.904
2022-11-22T19:40:50.140Z,969.890
2022-11-22T19:42:50.778Z,969.946
2022-11-22T19:44:50.309Z,969.972
2022-11-22T19:46:50.191Z,969.938
2022-11-22T19:48:50.022Z,969.963
2022-11-22T19:50:50.554Z,969.950
2022-11-22T19:52:50.250Z,969.935
2022-11-22T19:54:49.818Z,969.985
2022-11-22T19:56:50.481Z,969.985
2022-11-22T19:58:50.187Z,970.006
2022-11-22T20:00:50.120Z,970.011
2022-11-22T20:02:49.884Z,970.019
2022-11-22T20:04:49.963Z,970.060
2022-11-22T20:06:50.939Z,970.008
2022-11-22T20:08:50.519Z,970.068
2022-11-22T20:10:50.412Z,970.060
2022-11-22T20:12:49.978Z,970.045
2022-11-22T20:14:50.559Z,970.085
2022-11-22T20:16:50.591Z,970.095
2022-11-22T20:18:50.044Z,970.160
2022-11-22T20:20:50.606Z,970.153
2022-11-22T20:22:50.058Z,970.146
2022-11-22T20:24:50.639Z,970.192
2022-11-22T20:26:50.458Z,970.224
2022-11-22T20:28:50.089Z,970.285
2022-11-22T20:30:50.687Z,970.274
2022-11-22T20:32:50.309Z,970.336
2022-11-22T20:34:50.573Z,970.343
2022-11-22T20:36:50.550Z,970.343
2022-11-22T20:38:50.365Z,970.328
2022-11-22T20:40:49.930Z,970.415
2022-11-22T20:42:50.356Z,970.479
2022-11-22T20:44:49.981Z,970.511
2022-11-22T20:46:50.808Z,970.495
2022-11-22T20:48:50.734Z,970.489
2022-11-22T20:50:50.414Z,970.515
2022-11-22T20:52:49.819Z,970.547
2022-11-22T20:54:50.264Z,970.564
2022-11-22T20:56:50.061Z,970.602
2022-11-22T20:58:50.480Z,970.618
2022-11-22T21:00:50.305Z,970.561
2022-11-22T21:02:50.090Z,970.543
2022-11-22T21:04:50.345Z,970.564
2022-11-22T21:06:50.338Z,970.549
2022-11-22T21:08:50.763Z,970.483
2022-11-22T21:10:50.543Z,970.498
2022-11-22T21:12:50.196Z,970.519
2022-11-22T21:14:54.133Z,970.493
2022-11-22T21:16:49.902Z,970.488
2022-11-22T21:18:50.559Z,970.493
2022-11-22T21:20:50.143Z,970.449
2022-11-22T21:22:50.733Z,970.466
2022-11-22T21:24:50.373Z,970.480
2022-11-22T21:26:50.230Z,970.462
2022-11-22T21:28:49.963Z,970.416
2022-11-22T21:30:50.620Z,970.466
2022-11-22T21:32:50.030Z,970.495
2022-11-22T21:34:49.846Z,970.499
2022-11-22T21:36:49.851Z,970.536
2022-11-22T21:38:50.465Z,970.544
2022-11-22T21:40:50.101Z,970.565
2022-11-22T21:42:50.681Z,970.588
2022-11-22T21:44:50.103Z,970.663
2022-11-22T21:46:49.918Z,970.663
2022-11-22T21:48:50.351Z,970.604
2022-11-22T21:50:49.964Z,970.636
2022-11-22T21:52:50.582Z,970.625
2022-11-22T21:54:50.191Z,970.670
2022-11-22T21:56:50.217Z,970.660
2022-11-22T21:58:49.799Z,970.659
2022-11-22T22:00:50.196Z,970.659
2022-11-22T22:02:49.846Z,970.673
2022-11-22T22:04:50.082Z,970.633
2022-11-22T22:06:50.085Z,970.659
2022-11-22T22:08:50.723Z,970.703
2022-11-22T22:10:50.288Z,970.744
2022-11-22T22:12:49.912Z,970.749
2022-11-22T22:14:50.587Z,970.718
2022-11-22T22:16:50.356Z,970.770
2022-11-22T22:18:49.967Z,970.774
2022-11-22T22:20:50.354Z,970.808
2022-11-22T22:22:49.994Z,970.801
2022-11-22T22:24:50.614Z,970.802
2022-11-22T22:26:50.442Z,970.837
2022-11-22T22:28:50.010Z,970.840
2022-11-22T22:30:50.489Z,970.878
2022-11-22T22:32:50.256Z,970.881
2022-11-22T22:34:50.314Z,970.873
2022-11-22T22:36:50.309Z,970.893
2022-11-22T22:38:50.712Z,970.897
2022-11-22T22:40:50.312Z,970.864
2022-11-22T22:42:50.142Z,970.892
2022-11-22T22:44:50.750Z,970.878
2022-11-22T22:46:50.587Z,970.854
2022-11-22T22:48:50.414Z,970.851
2022-11-22T22:50:50.766Z,970.889
2022-11-22T22:52:50.403Z,970.913
2022-11-22T22:54:49.811Z,970.944
2022-11-22T22:56:50.423Z,970.944
2022-11-22T22:58:50.076Z,970.931
2022-11-22T23:00:50.429Z,970.991
2022-11-22T23:02:50.300Z,970.999
2022-11-22T23:04:50.509Z,971.000
2022-11-22T23:06:50.143Z,971.003
2022-11-22T23:08:49.952Z,971.034
2022-11-22T23:10:50.515Z,971.068
2022-11-22T23:12:49.975Z,971.041
2022-11-22T23:14:50.558Z,971.039
2022-11-22T23:16:58.554Z,971.057
2022-11-22T23:18:50.402Z,971.062
2022-11-22T23:20:49.797Z,971.054
2022-11-22T23:22:50.214Z,971.036
2022-11-22T23:24:49.829Z,971.031
2022-11-22T23:26:50.636Z,971.048
2022-11-22T23:28:50.265Z,971.094
2022-11-22T23:30:49.902Z,971.119
2022-11-22T23:32:50.478Z,971.096
2022-11-22T23:34:50.531Z,971.145
2022-11-22T23:36:50.109Z,971.190
2022-11-22T23:38:49.958Z,971.148
2022-11-22T23:40:50.572Z,971.169
2022-11-22T23:42:49.959Z,971.176
2022-11-22T23:44:50.606Z,971.220
2022-11-22T23:46:50.407Z,971.195
2022-11-22T23:48:50.030Z,971.193
2022-11-22T23:50:50.670Z,971.239
2022-11-22T23:52:50.060Z,971.171
2022-11-22T23:54:49.844Z,971.229
2022-11-22T23:56:50.670Z,971.260
2022-11-22T23:58:50.295Z,971.265
